<?xml version="1.0"?>
<gpx xmlns="http://www.topografix.com/GPX/1/1" xmlns:xsi="http://www.w3.org/2001/XMLSchema-instance" xmlns:wptx1="http://www.garmin.com/xmlschemas/WaypointExtension/v1" xmlns:gpxtrx="http://www.garmin.com/xmlschemas/GpxExtensions/v3" xmlns:gpxtpx="http://www.garmin.com/xmlschemas/TrackPointExtension/v1" xmlns:gpxx="http://www.garmin.com/xmlschemas/GpxExtensions/v3" xmlns:trp="http://www.garmin.com/xmlschemas/TripExtensions/v1" xmlns:adv="http://www.garmin.com/xmlschemas/AdventuresExtensions/v1" xmlns:prs="http://www.garmin.com/xmlschemas/PressureExtension/v1" xmlns:tmd="http://www.garmin.com/xmlschemas/TripMetaDataExtensions/v1" xmlns:vptm="http://www.garmin.com/xmlschemas/ViaPointTransportationModeExtensions/v1" xmlns:ctx="http://www.garmin.com/xmlschemas/CreationTimeExtension/v1" xmlns:gpxacc="http://www.garmin.com/xmlschemas/AccelerationExtension/v1" xmlns:gpxpx="http://www.garmin.com/xmlschemas/PowerExtension/v1" xmlns:vidx1="http://www.garmin.com/xmlschemas/VideoExtension/v1" creator="Garmin Desktop App" version="1.1" xsi:schemaLocation="http://www.topografix.com/GPX/1/1 http://www.topografix.com/GPX/1/1/gpx.xsd http://www.garmin.com/xmlschemas/WaypointExtension/v1 http://www8.garmin.com/xmlschemas/WaypointExtensionv1.xsd http://www.garmin.com/xmlschemas/TrackPointExtension/v1 http://www.garmin.com/xmlschemas/TrackPointExtensionv1.xsd http://www.garmin.com/xmlschemas/GpxExtensions/v3 http://www8.garmin.com/xmlschemas/GpxExtensionsv3.xsd http://www.garmin.com/xmlschemas/ActivityExtension/v1 http://www8.garmin.com/xmlschemas/ActivityExtensionv1.xsd http://www.garmin.com/xmlschemas/AdventuresExtensions/v1 http://www8.garmin.com/xmlschemas/AdventuresExtensionv1.xsd http://www.garmin.com/xmlschemas/PressureExtension/v1 http://www.garmin.com/xmlschemas/PressureExtensionv1.xsd http://www.garmin.com/xmlschemas/TripExtensions/v1 http://www.garmin.com/xmlschemas/TripExtensionsv1.xsd http://www.garmin.com/xmlschemas/TripMetaDataExtensions/v1 http://www.garmin.com/xmlschemas/TripMetaDataExtensionsv1.xsd http://www.garmin.com/xmlschemas/ViaPointTransportationModeExtensions/v1 http://www.garmin.com/xmlschemas/ViaPointTransportationModeExtensionsv1.xsd http://www.garmin.com/xmlschemas/CreationTimeExtension/v1 http://www.garmin.com/xmlschemas/CreationTimeExtensionsv1.xsd http://www.garmin.com/xmlschemas/AccelerationExtension/v1 http://www.garmin.com/xmlschemas/AccelerationExtensionv1.xsd http://www.garmin.com/xmlschemas/PowerExtension/v1 http://www.garmin.com/xmlschemas/PowerExtensionv1.xsd http://www.garmin.com/xmlschemas/VideoExtension/v1 http://www.garmin.com/xmlschemas/VideoExtensionv1.xsd">

  <metadata>
    <link href="http://www.garmin.com">
      <text>Garmin International</text>
    </link>
    <time>2018-02-26T07:33:23Z</time>
    <bounds maxlat="12.99169703386724" maxlon="101.052549015730619" minlat="12.921181004494429" minlon="101.006206981837749"/>
  </metadata>

  <wpt lat="12.923930520191789" lon="101.018575737252831">
    <ele>131</ele>
    <name>Grand Valley Hotel</name>
    <cmt>25-MAY-13 12:59:24</cmt>
    <desc>25-MAY-13 12:59:24</desc>
    <sym>Lodging</sym>
    <type>user</type>
    <extensions>
      <gpxx:WaypointExtension>
        <gpxx:DisplayMode>SymbolOnly</gpxx:DisplayMode>
      </gpxx:WaypointExtension>
      <wptx1:WaypointExtension>
        <wptx1:DisplayMode>SymbolOnly</wptx1:DisplayMode>
      </wptx1:WaypointExtension>
    </extensions>
  </wpt>

  <wpt lat="12.959061171859503" lon="101.039147609844804">
    <ele>158</ele>
    <name>Water Sat</name>
    <cmt>25-MAY-13 14:01:54</cmt>
    <desc>25-MAY-13 14:01:54</desc>
    <sym>Drinking Water</sym>
    <type>user</type>
    <extensions>
      <gpxx:WaypointExtension>
        <gpxx:DisplayMode>SymbolOnly</gpxx:DisplayMode>
      </gpxx:WaypointExtension>
      <wptx1:WaypointExtension>
        <wptx1:DisplayMode>SymbolOnly</wptx1:DisplayMode>
      </wptx1:WaypointExtension>
    </extensions>
  </wpt>

  <trk>
    <name>Sat Mini-FRB</name>
    <extensions>
      <gpxx:TrackExtension>
        <gpxx:DisplayColor>DarkRed</gpxx:DisplayColor>
      </gpxx:TrackExtension>
    </extensions>
    <trkseg>
      <trkpt lat="12.965601989999413" lon="101.04724251665175">
        <ele>151.064208984375</ele>
        <time>2013-05-25T07:44:27Z</time>
      </trkpt>
      <trkpt lat="12.965543903410435" lon="101.047208737581968">
        <ele>150.5836181640625</ele>
        <time>2013-05-25T07:44:31Z</time>
      </trkpt>
      <trkpt lat="12.965019447728992" lon="101.046967171132565">
        <ele>150.10302734375</ele>
        <time>2013-05-25T07:44:53Z</time>
      </trkpt>
      <trkpt lat="12.964562382549047" lon="101.046905228868127">
        <ele>149.1416015625</ele>
        <time>2013-05-25T07:45:11Z</time>
      </trkpt>
      <trkpt lat="12.96426541171968" lon="101.047074710950255">
        <ele>150.5836181640625</ele>
        <time>2013-05-25T07:45:25Z</time>
      </trkpt>
      <trkpt lat="12.963850675150752" lon="101.047148555517197">
        <ele>151.544921875</ele>
        <time>2013-05-25T07:45:41Z</time>
      </trkpt>
      <trkpt lat="12.963462006300688" lon="101.046873964369297">
        <ele>153.4676513671875</ele>
        <time>2013-05-25T07:45:59Z</time>
      </trkpt>
      <trkpt lat="12.963129412382841" lon="101.046485714614391">
        <ele>156.3515625</ele>
        <time>2013-05-25T07:46:17Z</time>
      </trkpt>
      <trkpt lat="12.963061686605215" lon="101.046350179240108">
        <ele>158.274169921875</ele>
        <time>2013-05-25T07:46:22Z</time>
      </trkpt>
      <trkpt lat="12.962774438783526" lon="101.046098805963993">
        <ele>161.638916015625</ele>
        <time>2013-05-25T07:46:36Z</time>
      </trkpt>
      <trkpt lat="12.962665222585201" lon="101.04602437466383">
        <ele>160.677490234375</ele>
        <time>2013-05-25T07:46:57Z</time>
      </trkpt>
      <trkpt lat="12.962214360013604" lon="101.045994954183698">
        <ele>160.677490234375</ele>
        <time>2013-05-25T07:47:11Z</time>
      </trkpt>
      <trkpt lat="12.962185442447662" lon="101.045989003032446">
        <ele>160.677490234375</ele>
        <time>2013-05-25T07:47:12Z</time>
      </trkpt>
      <trkpt lat="12.961872462183237" lon="101.04583871550858">
        <ele>157.3128662109375</ele>
        <time>2013-05-25T07:47:26Z</time>
      </trkpt>
      <trkpt lat="12.961499383673072" lon="101.04551668278873">
        <ele>157.7935791015625</ele>
        <time>2013-05-25T07:47:47Z</time>
      </trkpt>
      <trkpt lat="12.961457474157214" lon="101.045402185991406">
        <ele>158.7547607421875</ele>
        <time>2013-05-25T07:47:52Z</time>
      </trkpt>
      <trkpt lat="12.961193276569247" lon="101.044599702581763">
        <ele>157.7935791015625</ele>
        <time>2013-05-25T07:48:20Z</time>
      </trkpt>
      <trkpt lat="12.961107110604644" lon="101.044506914913654">
        <ele>158.7547607421875</ele>
        <time>2013-05-25T07:48:24Z</time>
      </trkpt>
      <trkpt lat="12.96072824858129" lon="101.044030319899321">
        <ele>157.7935791015625</ele>
        <time>2013-05-25T07:48:41Z</time>
      </trkpt>
      <trkpt lat="12.960504032671452" lon="101.043816665187478">
        <ele>157.3128662109375</ele>
        <time>2013-05-25T07:48:50Z</time>
      </trkpt>
      <trkpt lat="12.96018292196095" lon="101.043706610798836">
        <ele>158.7547607421875</ele>
        <time>2013-05-25T07:49:00Z</time>
      </trkpt>
      <trkpt lat="12.960053253918886" lon="101.043603597208858">
        <ele>158.7547607421875</ele>
        <time>2013-05-25T07:49:04Z</time>
      </trkpt>
      <trkpt lat="12.95981403440237" lon="101.043611643835902">
        <ele>158.7547607421875</ele>
        <time>2013-05-25T07:49:11Z</time>
      </trkpt>
      <trkpt lat="12.959226714447141" lon="101.043378794565797">
        <ele>157.3128662109375</ele>
        <time>2013-05-25T07:49:27Z</time>
      </trkpt>
      <trkpt lat="12.958904849365354" lon="101.04329539462924">
        <ele>156.3515625</ele>
        <time>2013-05-25T07:49:35Z</time>
      </trkpt>
      <trkpt lat="12.958796722814441" lon="101.043156506493688">
        <ele>156.8321533203125</ele>
        <time>2013-05-25T07:49:40Z</time>
      </trkpt>
      <trkpt lat="12.958845505490899" lon="101.042850399389863">
        <ele>156.3515625</ele>
        <time>2013-05-25T07:49:54Z</time>
      </trkpt>
      <trkpt lat="12.958879955112934" lon="101.042493414133787">
        <ele>157.7935791015625</ele>
        <time>2013-05-25T07:50:11Z</time>
      </trkpt>
      <trkpt lat="12.958873668685555" lon="101.042419988662004">
        <ele>158.7547607421875</ele>
        <time>2013-05-25T07:50:15Z</time>
      </trkpt>
      <trkpt lat="12.958819605410099" lon="101.042340444400907">
        <ele>160.677490234375</ele>
        <time>2013-05-25T07:50:21Z</time>
      </trkpt>
      <trkpt lat="12.958900071680546" lon="101.042200131341815">
        <ele>162.1195068359375</ele>
        <time>2013-05-25T07:50:34Z</time>
      </trkpt>
      <trkpt lat="12.95876688323915" lon="101.041869297623634">
        <ele>163.080810546875</ele>
        <time>2013-05-25T07:50:52Z</time>
      </trkpt>
      <trkpt lat="12.958770571276546" lon="101.041671903803945">
        <ele>165.484130859375</ele>
        <time>2013-05-25T07:51:04Z</time>
      </trkpt>
      <trkpt lat="12.958772666752338" lon="101.041664779186249">
        <ele>165.484130859375</ele>
        <time>2013-05-25T07:51:05Z</time>
      </trkpt>
      <trkpt lat="12.958793705329299" lon="101.041613146662712">
        <ele>165.484130859375</ele>
        <time>2013-05-25T07:51:09Z</time>
      </trkpt>
      <trkpt lat="12.958723297342658" lon="101.041294885799289">
        <ele>165.9647216796875</ele>
        <time>2013-05-25T07:51:27Z</time>
      </trkpt>
      <trkpt lat="12.958699157461524" lon="101.041188687086105">
        <ele>165.484130859375</ele>
        <time>2013-05-25T07:51:33Z</time>
      </trkpt>
      <trkpt lat="12.958815917372704" lon="101.040954496711493">
        <ele>166.926025390625</ele>
        <time>2013-05-25T07:51:47Z</time>
      </trkpt>
      <trkpt lat="12.959034433588386" lon="101.040589464828372">
        <ele>169.3294677734375</ele>
        <time>2013-05-25T07:52:07Z</time>
      </trkpt>
      <trkpt lat="12.959135686978698" lon="101.040212865918875">
        <ele>169.3294677734375</ele>
        <time>2013-05-25T07:52:23Z</time>
      </trkpt>
      <trkpt lat="12.959193522110581" lon="101.040027961134911">
        <ele>170.7713623046875</ele>
        <time>2013-05-25T07:52:37Z</time>
      </trkpt>
      <trkpt lat="12.959264684468508" lon="101.03965706191957">
        <ele>167.40673828125</ele>
        <time>2013-05-25T07:52:52Z</time>
      </trkpt>
      <trkpt lat="12.959101488813758" lon="101.039524879306555">
        <ele>165.484130859375</ele>
        <time>2013-05-25T07:53:02Z</time>
      </trkpt>
      <trkpt lat="12.959058657288551" lon="101.039488837122917">
        <ele>165.484130859375</ele>
        <time>2013-05-25T07:53:04Z</time>
      </trkpt>
      <trkpt lat="12.959011048078537" lon="101.039264118298888">
        <ele>163.5615234375</ele>
        <time>2013-05-25T07:53:16Z</time>
      </trkpt>
      <trkpt lat="12.959043486043811" lon="101.039160517975688">
        <ele>163.5615234375</ele>
        <time>2013-05-25T07:53:29Z</time>
      </trkpt>
      <trkpt lat="12.959055807441473" lon="101.039168480783701">
        <ele>166.926025390625</ele>
        <time>2013-05-25T07:53:52Z</time>
      </trkpt>
      <trkpt lat="12.959000822156668" lon="101.039149286225438">
        <ele>167.40673828125</ele>
        <time>2013-05-25T07:55:16Z</time>
      </trkpt>
      <trkpt lat="12.959062680602074" lon="101.039167139679193">
        <ele>173.1746826171875</ele>
        <time>2013-05-25T07:56:07Z</time>
      </trkpt>
      <trkpt lat="12.959064524620771" lon="101.039204439148307">
        <ele>171.2520751953125</ele>
        <time>2013-05-25T07:57:08Z</time>
      </trkpt>
      <trkpt lat="12.959065195173025" lon="101.039212066680193">
        <ele>170.7713623046875</ele>
        <time>2013-05-25T07:57:58Z</time>
      </trkpt>
      <trkpt lat="12.959026219323277" lon="101.039112824946642">
        <ele>161.158203125</ele>
        <time>2013-05-25T08:17:35Z</time>
      </trkpt>
      <trkpt lat="12.959000319242477" lon="101.03914643637836">
        <ele>163.5615234375</ele>
        <time>2013-05-25T08:18:18Z</time>
      </trkpt>
      <trkpt lat="12.958962181583047" lon="101.039165798574686">
        <ele>159.7161865234375</ele>
        <time>2013-05-25T08:19:03Z</time>
      </trkpt>
      <trkpt lat="12.958823125809431" lon="101.039172420278192">
        <ele>159.2354736328125</ele>
        <time>2013-05-25T08:19:18Z</time>
      </trkpt>
      <trkpt lat="12.958521377295256" lon="101.039149956777692">
        <ele>156.3515625</ele>
        <time>2013-05-25T08:19:29Z</time>
      </trkpt>
      <trkpt lat="12.958455076441169" lon="101.039114836603403">
        <ele>155.8709716796875</ele>
        <time>2013-05-25T08:19:31Z</time>
      </trkpt>
      <trkpt lat="12.958338651806116" lon="101.038791546598077">
        <ele>152.50634765625</ele>
        <time>2013-05-25T08:19:40Z</time>
      </trkpt>
      <trkpt lat="12.958255503326654" lon="101.03816625662148">
        <ele>151.544921875</ele>
        <time>2013-05-25T08:19:57Z</time>
      </trkpt>
      <trkpt lat="12.958163386210799" lon="101.037545828148723">
        <ele>151.544921875</ele>
        <time>2013-05-25T08:20:16Z</time>
      </trkpt>
      <trkpt lat="12.958071436733007" lon="101.036996729671955">
        <ele>151.064208984375</ele>
        <time>2013-05-25T08:20:33Z</time>
      </trkpt>
      <trkpt lat="12.957948977127671" lon="101.036264570429921">
        <ele>151.544921875</ele>
        <time>2013-05-25T08:20:52Z</time>
      </trkpt>
      <trkpt lat="12.957848226651549" lon="101.035539619624615">
        <ele>152.50634765625</ele>
        <time>2013-05-25T08:21:11Z</time>
      </trkpt>
      <trkpt lat="12.957784943282604" lon="101.035357732325792">
        <ele>151.064208984375</ele>
        <time>2013-05-25T08:21:24Z</time>
      </trkpt>
    </trkseg>
  </trk>

  <trk>
    <name>Saturday 001</name>
    <extensions>
      <gpxx:TrackExtension>
        <gpxx:DisplayColor>Red</gpxx:DisplayColor>
      </gpxx:TrackExtension>
    </extensions>
    <trkseg>
      <trkpt lat="12.923936974257231" lon="101.018715966492891">
        <ele>151.060000000000002</ele>
        <time>2013-05-25T06:03:39Z</time>
      </trkpt>
      <trkpt lat="12.923747040331364" lon="101.019140006974339">
        <ele>151.060000000000002</ele>
        <time>2013-05-25T06:04:14Z</time>
      </trkpt>
      <trkpt lat="12.923577977344394" lon="101.01924997754395">
        <ele>152.509999999999991</ele>
        <time>2013-05-25T06:04:37Z</time>
      </trkpt>
      <trkpt lat="12.922999961301684" lon="101.019344022497535">
        <ele>151.060000000000002</ele>
        <time>2013-05-25T06:04:57Z</time>
      </trkpt>
      <trkpt lat="12.924109976738691" lon="101.022279029712081">
        <ele>162.599999999999994</ele>
        <time>2013-05-25T06:06:26Z</time>
      </trkpt>
      <trkpt lat="12.924307035282254" lon="101.022607013583183">
        <ele>164.039999999999992</ele>
        <time>2013-05-25T06:06:40Z</time>
      </trkpt>
      <trkpt lat="12.924759993329644" lon="101.022623023018241">
        <ele>166.930000000000007</ele>
        <time>2013-05-25T06:06:57Z</time>
      </trkpt>
      <trkpt lat="12.925512017682195" lon="101.022412972524762">
        <ele>170.77000000000001</ele>
        <time>2013-05-25T06:07:41Z</time>
      </trkpt>
      <trkpt lat="12.925690971314907" lon="101.02285897359252">
        <ele>167.889999999999986</ele>
        <time>2013-05-25T06:09:27Z</time>
      </trkpt>
      <trkpt lat="12.925156960263848" lon="101.023142030462623">
        <ele>166.930000000000007</ele>
        <time>2013-05-25T06:09:47Z</time>
      </trkpt>
      <trkpt lat="12.923273965716362" lon="101.023130966350436">
        <ele>164.039999999999992</ele>
        <time>2013-05-25T06:10:26Z</time>
      </trkpt>
      <trkpt lat="12.922909017652273" lon="101.023088973015547">
        <ele>163.080000000000013</ele>
        <time>2013-05-25T06:10:32Z</time>
      </trkpt>
      <trkpt lat="12.921887012198567" lon="101.022900966927409">
        <ele>155.870000000000005</ele>
        <time>2013-05-25T06:10:50Z</time>
      </trkpt>
      <trkpt lat="12.921559028327465" lon="101.023070029914379">
        <ele>153.949999999999989</ele>
        <time>2013-05-25T06:11:00Z</time>
      </trkpt>
      <trkpt lat="12.92139801196754" lon="101.023255018517375">
        <ele>152.509999999999991</ele>
        <time>2013-05-25T06:11:24Z</time>
      </trkpt>
      <trkpt lat="12.921181004494429" lon="101.023466996848583">
        <ele>150.099999999999994</ele>
        <time>2013-05-25T06:12:16Z</time>
      </trkpt>
      <trkpt lat="12.923385025933385" lon="101.023819958791137">
        <ele>161.639999999999986</ele>
        <time>2013-05-25T06:13:48Z</time>
      </trkpt>
      <trkpt lat="12.924636024981737" lon="101.023862035945058">
        <ele>161.639999999999986</ele>
        <time>2013-05-25T06:14:20Z</time>
      </trkpt>
      <trkpt lat="12.924708025529981" lon="101.02434097789228">
        <ele>161.159999999999997</ele>
        <time>2013-05-25T06:14:30Z</time>
      </trkpt>
      <trkpt lat="12.92608299292624" lon="101.025004992261529">
        <ele>159.240000000000009</ele>
        <time>2013-05-25T06:15:01Z</time>
      </trkpt>
      <trkpt lat="12.927171969786286" lon="101.024539964273572">
        <ele>155.389999999999986</ele>
        <time>2013-05-25T06:15:27Z</time>
      </trkpt>
      <trkpt lat="12.927599027752876" lon="101.024110978469253">
        <ele>155.870000000000005</ele>
        <time>2013-05-25T06:15:38Z</time>
      </trkpt>
      <trkpt lat="12.928622961044312" lon="101.021972000598907">
        <ele>158.75</ele>
        <time>2013-05-25T06:16:34Z</time>
      </trkpt>
      <trkpt lat="12.929706992581487" lon="101.023753993213177">
        <ele>160.680000000000007</ele>
        <time>2013-05-25T06:17:38Z</time>
      </trkpt>
      <trkpt lat="12.931769024580717" lon="101.025167014449835">
        <ele>161.639999999999986</ele>
        <time>2013-05-25T06:18:58Z</time>
      </trkpt>
      <trkpt lat="12.932180995121598" lon="101.024950006976724">
        <ele>162.120000000000005</ele>
        <time>2013-05-25T06:19:31Z</time>
      </trkpt>
      <trkpt lat="12.932554995641112" lon="101.024216003715992">
        <ele>164.039999999999992</ele>
        <time>2013-05-25T06:20:01Z</time>
      </trkpt>
      <trkpt lat="12.933138040825725" lon="101.024432005360723">
        <ele>165</ele>
        <time>2013-05-25T06:20:15Z</time>
      </trkpt>
      <trkpt lat="12.939591016620398" lon="101.026432011276484">
        <ele>164.039999999999992</ele>
        <time>2013-05-25T06:22:05Z</time>
      </trkpt>
      <trkpt lat="12.940008016303182" lon="101.025860030204058">
        <ele>165.960000000000008</ele>
        <time>2013-05-25T06:22:27Z</time>
      </trkpt>
      <trkpt lat="12.940699020400643" lon="101.025523999705911">
        <ele>167.889999999999986</ele>
        <time>2013-05-25T06:22:51Z</time>
      </trkpt>
      <trkpt lat="12.941110990941525" lon="101.026239981874824">
        <ele>169.810000000000002</ele>
        <time>2013-05-25T06:23:20Z</time>
      </trkpt>
      <trkpt lat="12.941387007012963" lon="101.026625968515873">
        <ele>168.849999999999994</ele>
        <time>2013-05-25T06:23:33Z</time>
      </trkpt>
      <trkpt lat="12.944105006754398" lon="101.025634976103902">
        <ele>173.169999999999987</ele>
        <time>2013-05-25T06:24:49Z</time>
      </trkpt>
      <trkpt lat="12.946025971323252" lon="101.025513019412756">
        <ele>178.939999999999998</ele>
        <time>2013-05-25T06:26:03Z</time>
      </trkpt>
      <trkpt lat="12.946976982057095" lon="101.025460967794061">
        <ele>180.379999999999995</ele>
        <time>2013-05-25T06:26:36Z</time>
      </trkpt>
      <trkpt lat="12.948091020807624" lon="101.025449987500906">
        <ele>177.02000000000001</ele>
        <time>2013-05-25T06:26:59Z</time>
      </trkpt>
      <trkpt lat="12.94877196662128" lon="101.025211019441485">
        <ele>175.580000000000013</ele>
        <time>2013-05-25T06:27:09Z</time>
      </trkpt>
      <trkpt lat="12.949850969016552" lon="101.025085961446166">
        <ele>176.060000000000002</ele>
        <time>2013-05-25T06:27:26Z</time>
      </trkpt>
      <trkpt lat="12.95072796754539" lon="101.024974985048175">
        <ele>175.580000000000013</ele>
        <time>2013-05-25T06:27:41Z</time>
      </trkpt>
      <trkpt lat="12.950840033590794" lon="101.024967022240162">
        <ele>175.099999999999994</ele>
        <time>2013-05-25T06:27:43Z</time>
      </trkpt>
      <trkpt lat="12.951003983616829" lon="101.0251550283283">
        <ele>174.139999999999986</ele>
        <time>2013-05-25T06:27:48Z</time>
      </trkpt>
      <trkpt lat="12.951636984944344" lon="101.027046991512179">
        <ele>167.889999999999986</ele>
        <time>2013-05-25T06:28:18Z</time>
      </trkpt>
      <trkpt lat="12.951649976894259" lon="101.027161991223693">
        <ele>167.409999999999997</ele>
        <time>2013-05-25T06:28:20Z</time>
      </trkpt>
      <trkpt lat="12.95050903223455" lon="101.027962965890765">
        <ele>164.039999999999992</ele>
        <time>2013-05-25T06:28:44Z</time>
      </trkpt>
      <trkpt lat="12.949807969853282" lon="101.028077965602279">
        <ele>163.080000000000013</ele>
        <time>2013-05-25T06:28:56Z</time>
      </trkpt>
      <trkpt lat="12.949279993772507" lon="101.027960032224655">
        <ele>165.960000000000008</ele>
        <time>2013-05-25T06:29:10Z</time>
      </trkpt>
      <trkpt lat="12.949215034022927" lon="101.027982998639345">
        <ele>165.960000000000008</ele>
        <time>2013-05-25T06:29:12Z</time>
      </trkpt>
      <trkpt lat="12.949080001562834" lon="101.028407961130142">
        <ele>165.960000000000008</ele>
        <time>2013-05-25T06:29:23Z</time>
      </trkpt>
      <trkpt lat="12.948755035176873" lon="101.029837997630239">
        <ele>164.039999999999992</ele>
        <time>2013-05-25T06:29:48Z</time>
      </trkpt>
      <trkpt lat="12.94838597998023" lon="101.031143981963396">
        <ele>159.719999999999999</ele>
        <time>2013-05-25T06:30:09Z</time>
      </trkpt>
      <trkpt lat="12.948334012180567" lon="101.032368997111917">
        <ele>152.509999999999991</ele>
        <time>2013-05-25T06:30:34Z</time>
      </trkpt>
      <trkpt lat="12.94726800173521" lon="101.034520966932178">
        <ele>148.659999999999997</ele>
        <time>2013-05-25T06:32:58Z</time>
      </trkpt>
      <trkpt lat="12.946723010390997" lon="101.034991024062037">
        <ele>147.699999999999989</ele>
        <time>2013-05-25T06:33:14Z</time>
      </trkpt>
      <trkpt lat="12.946677999570966" lon="101.035195039585233">
        <ele>147.219999999999999</ele>
        <time>2013-05-25T06:33:23Z</time>
      </trkpt>
      <trkpt lat="12.947334973141551" lon="101.036026021465659">
        <ele>147.219999999999999</ele>
        <time>2013-05-25T06:33:52Z</time>
      </trkpt>
      <trkpt lat="12.946869023144245" lon="101.037011984735727">
        <ele>147.699999999999989</ele>
        <time>2013-05-25T06:34:12Z</time>
      </trkpt>
      <trkpt lat="12.946627037599683" lon="101.037663007155061">
        <ele>147.219999999999999</ele>
        <time>2013-05-25T06:34:26Z</time>
      </trkpt>
      <trkpt lat="12.948569040745497" lon="101.03772503323853">
        <ele>151.060000000000002</ele>
        <time>2013-05-25T06:35:06Z</time>
      </trkpt>
      <trkpt lat="12.9485999699682" lon="101.03774699382484">
        <ele>151.060000000000002</ele>
        <time>2013-05-25T06:35:07Z</time>
      </trkpt>
      <trkpt lat="12.94872997328639" lon="101.039360007271171">
        <ele>150.099999999999994</ele>
        <time>2013-05-25T06:35:41Z</time>
      </trkpt>
      <trkpt lat="12.948568034917116" lon="101.040062997490168">
        <ele>152.030000000000001</ele>
        <time>2013-05-25T06:36:34Z</time>
      </trkpt>
      <trkpt lat="12.948519000783563" lon="101.040070038288832">
        <ele>152.030000000000001</ele>
        <time>2013-05-25T06:36:40Z</time>
      </trkpt>
      <trkpt lat="12.948134019970894" lon="101.040051011368632">
        <ele>148.659999999999997</ele>
        <time>2013-05-25T06:36:58Z</time>
      </trkpt>
      <trkpt lat="12.947961017489433" lon="101.040188977494836">
        <ele>150.580000000000013</ele>
        <time>2013-05-25T06:37:11Z</time>
      </trkpt>
      <trkpt lat="12.948167966678739" lon="101.040674038231373">
        <ele>163.560000000000002</ele>
        <time>2013-05-25T06:38:36Z</time>
      </trkpt>
      <trkpt lat="12.948430990800261" lon="101.040852991864085">
        <ele>166.930000000000007</ele>
        <time>2013-05-25T06:39:17Z</time>
      </trkpt>
      <trkpt lat="12.948463009670377" lon="101.040974026545882">
        <ele>163.560000000000002</ele>
        <time>2013-05-25T06:39:27Z</time>
      </trkpt>
      <trkpt lat="12.948613967746496" lon="101.04097100906074">
        <ele>166.449999999999989</ele>
        <time>2013-05-25T06:39:41Z</time>
      </trkpt>
      <trkpt lat="12.948837010189891" lon="101.04094997048378">
        <ele>166.930000000000007</ele>
        <time>2013-05-25T06:39:54Z</time>
      </trkpt>
      <trkpt lat="12.948961984366179" lon="101.041062958538532">
        <ele>166.930000000000007</ele>
        <time>2013-05-25T06:40:04Z</time>
      </trkpt>
      <trkpt lat="12.948961984366179" lon="101.041269991546869">
        <ele>160.680000000000007</ele>
        <time>2013-05-25T06:40:44Z</time>
      </trkpt>
      <trkpt lat="12.950348015874624" lon="101.041499990969896">
        <ele>153.469999999999999</ele>
        <time>2013-05-25T06:41:14Z</time>
      </trkpt>
      <trkpt lat="12.952012997120619" lon="101.041527986526489">
        <ele>152.990000000000009</ele>
        <time>2013-05-25T06:41:58Z</time>
      </trkpt>
      <trkpt lat="12.952979011461139" lon="101.041246019303799">
        <ele>157.310000000000002</ele>
        <time>2013-05-25T06:42:30Z</time>
      </trkpt>
      <trkpt lat="12.953016981482506" lon="101.0410369746387">
        <ele>157.310000000000002</ele>
        <time>2013-05-25T06:42:41Z</time>
      </trkpt>
      <trkpt lat="12.954529998824" lon="101.041118027642369">
        <ele>163.080000000000013</ele>
        <time>2013-05-25T06:43:24Z</time>
      </trkpt>
      <trkpt lat="12.957238024100661" lon="101.039903992787004">
        <ele>169.810000000000002</ele>
        <time>2013-05-25T06:44:41Z</time>
      </trkpt>
      <trkpt lat="12.957498030737042" lon="101.039509959518909">
        <ele>170.77000000000001</ele>
        <time>2013-05-25T06:44:55Z</time>
      </trkpt>
      <trkpt lat="12.958937035873532" lon="101.039163032546639">
        <ele>176.060000000000002</ele>
        <time>2013-05-25T06:45:39Z</time>
      </trkpt>
      <trkpt lat="12.958961008116603" lon="101.039140988141298">
        <ele>174.139999999999986</ele>
        <time>2013-05-25T06:50:45Z</time>
      </trkpt>
      <trkpt lat="12.959004007279873" lon="101.039442988112569">
        <ele>177.5</ele>
        <time>2013-05-25T06:55:43Z</time>
      </trkpt>
      <trkpt lat="12.959210034459829" lon="101.039535021409392">
        <ele>179.900000000000006</ele>
        <time>2013-05-25T06:55:53Z</time>
      </trkpt>
      <trkpt lat="12.959757959470153" lon="101.038944013416767">
        <ele>179.419999999999987</ele>
        <time>2013-05-25T06:56:17Z</time>
      </trkpt>
      <trkpt lat="12.960019977763295" lon="101.038148989900947">
        <ele>176.539999999999992</ele>
        <time>2013-05-25T06:56:37Z</time>
      </trkpt>
      <trkpt lat="12.96030898578465" lon="101.037921002134681">
        <ele>178.460000000000008</ele>
        <time>2013-05-25T06:56:49Z</time>
      </trkpt>
      <trkpt lat="12.960542002692819" lon="101.037498973309994">
        <ele>178.460000000000008</ele>
        <time>2013-05-25T06:57:14Z</time>
      </trkpt>
      <trkpt lat="12.96061098575592" lon="101.03761799633503">
        <ele>180.379999999999995</ele>
        <time>2013-05-25T06:57:23Z</time>
      </trkpt>
      <trkpt lat="12.960927989333868" lon="101.037289006635547">
        <ele>177.5</ele>
        <time>2013-05-25T06:57:41Z</time>
      </trkpt>
      <trkpt lat="12.961546992883086" lon="101.036945013329387">
        <ele>179.419999999999987</ele>
        <time>2013-05-25T06:58:05Z</time>
      </trkpt>
      <trkpt lat="12.961784033104777" lon="101.037015002220869">
        <ele>182.789999999999992</ele>
        <time>2013-05-25T06:58:21Z</time>
      </trkpt>
      <trkpt lat="12.96256497502327" lon="101.036773016676307">
        <ele>184.710000000000008</ele>
        <time>2013-05-25T06:58:53Z</time>
      </trkpt>
      <trkpt lat="12.963139973580837" lon="101.036949036642909">
        <ele>190.960000000000008</ele>
        <time>2013-05-25T06:59:28Z</time>
      </trkpt>
      <trkpt lat="12.963437028229237" lon="101.036800006404519">
        <ele>189.039999999999992</ele>
        <time>2013-05-25T06:59:41Z</time>
      </trkpt>
      <trkpt lat="12.963694017380476" lon="101.036339001730084">
        <ele>180.379999999999995</ele>
        <time>2013-05-25T06:59:51Z</time>
      </trkpt>
      <trkpt lat="12.963169980794191" lon="101.036105984821916">
        <ele>179.900000000000006</ele>
        <time>2013-05-25T07:00:15Z</time>
      </trkpt>
      <trkpt lat="12.963540963828564" lon="101.036074971780181">
        <ele>177.97999999999999</ele>
        <time>2013-05-25T07:00:26Z</time>
      </trkpt>
      <trkpt lat="12.96372402459383" lon="101.035830974578857">
        <ele>178.939999999999998</ele>
        <time>2013-05-25T07:00:46Z</time>
      </trkpt>
      <trkpt lat="12.964302040636539" lon="101.035862993448973">
        <ele>182.789999999999992</ele>
        <time>2013-05-25T07:01:18Z</time>
      </trkpt>
      <trkpt lat="12.964738989248872" lon="101.035636011511087">
        <ele>185.669999999999987</ele>
        <time>2013-05-25T07:01:45Z</time>
      </trkpt>
      <trkpt lat="12.965602995827794" lon="101.037226980552077">
        <ele>198.169999999999987</ele>
        <time>2013-05-25T07:03:25Z</time>
      </trkpt>
      <trkpt lat="12.965890998020768" lon="101.037541972473264">
        <ele>201.530000000000001</ele>
        <time>2013-05-25T07:03:49Z</time>
      </trkpt>
      <trkpt lat="12.965990994125605" lon="101.038374966010451">
        <ele>207.780000000000001</ele>
        <time>2013-05-25T07:04:47Z</time>
      </trkpt>
      <trkpt lat="12.966759027913213" lon="101.039918996393681">
        <ele>189.52000000000001</ele>
        <time>2013-05-25T07:05:49Z</time>
      </trkpt>
      <trkpt lat="12.967022974044085" lon="101.040138015523553">
        <ele>192.400000000000006</ele>
        <time>2013-05-25T07:06:33Z</time>
      </trkpt>
      <trkpt lat="12.967031020671129" lon="101.040148995816708">
        <ele>191.919999999999987</ele>
        <time>2013-05-25T07:06:34Z</time>
      </trkpt>
      <trkpt lat="12.966993972659111" lon="101.040396010503173">
        <ele>197.210000000000008</ele>
        <time>2013-05-25T07:07:04Z</time>
      </trkpt>
      <trkpt lat="12.967638038098812" lon="101.040358962491155">
        <ele>185.669999999999987</ele>
        <time>2013-05-25T07:07:33Z</time>
      </trkpt>
      <trkpt lat="12.968315966427326" lon="101.041350038722157">
        <ele>178.460000000000008</ele>
        <time>2013-05-25T07:08:14Z</time>
      </trkpt>
      <trkpt lat="12.968499027192593" lon="101.041927970945835">
        <ele>179.419999999999987</ele>
        <time>2013-05-25T07:08:29Z</time>
      </trkpt>
      <trkpt lat="12.968647973611951" lon="101.04236600920558">
        <ele>176.060000000000002</ele>
        <time>2013-05-25T07:08:40Z</time>
      </trkpt>
      <trkpt lat="12.968712011352181" lon="101.042451001703739">
        <ele>175.099999999999994</ele>
        <time>2013-05-25T07:08:43Z</time>
      </trkpt>
      <trkpt lat="12.968735983595252" lon="101.043346021324396">
        <ele>180.870000000000005</ele>
        <time>2013-05-25T07:09:22Z</time>
      </trkpt>
      <trkpt lat="12.968620983883739" lon="101.043583983555436">
        <ele>182.310000000000002</ele>
        <time>2013-05-25T07:10:30Z</time>
      </trkpt>
      <trkpt lat="12.968800021335483" lon="101.04378598742187">
        <ele>184.22999999999999</ele>
        <time>2013-05-25T07:10:44Z</time>
      </trkpt>
      <trkpt lat="12.969064973294735" lon="101.043774001300335">
        <ele>185.669999999999987</ele>
        <time>2013-05-25T07:10:57Z</time>
      </trkpt>
      <trkpt lat="12.969291033223271" lon="101.043726978823543">
        <ele>186.150000000000006</ele>
        <time>2013-05-25T07:11:09Z</time>
      </trkpt>
      <trkpt lat="12.96948398463428" lon="101.043945997953415">
        <ele>180.870000000000005</ele>
        <time>2013-05-25T07:11:22Z</time>
      </trkpt>
      <trkpt lat="12.969434028491378" lon="101.044319998472929">
        <ele>176.060000000000002</ele>
        <time>2013-05-25T07:11:32Z</time>
      </trkpt>
      <trkpt lat="12.969634020701051" lon="101.044925004243851">
        <ele>169.330000000000013</ele>
        <time>2013-05-25T07:11:51Z</time>
      </trkpt>
      <trkpt lat="12.96899096108973" lon="101.045243013650179">
        <ele>167.889999999999986</ele>
        <time>2013-05-25T07:12:16Z</time>
      </trkpt>
      <trkpt lat="12.968719974160194" lon="101.045327000319958">
        <ele>163.560000000000002</ele>
        <time>2013-05-25T07:12:23Z</time>
      </trkpt>
      <trkpt lat="12.967983959242702" lon="101.045234967023134">
        <ele>162.599999999999994</ele>
        <time>2013-05-25T07:12:46Z</time>
      </trkpt>
      <trkpt lat="12.967843981459737" lon="101.045434959232807">
        <ele>165</ele>
        <time>2013-05-25T07:12:54Z</time>
      </trkpt>
      <trkpt lat="12.967722024768591" lon="101.045925971120596">
        <ele>164.52000000000001</ele>
        <time>2013-05-25T07:13:11Z</time>
      </trkpt>
      <trkpt lat="12.967525972053409" lon="101.046135015785694">
        <ele>164.52000000000001</ele>
        <time>2013-05-25T07:13:17Z</time>
      </trkpt>
      <trkpt lat="12.966492986306548" lon="101.046698028221726">
        <ele>165.47999999999999</ele>
        <time>2013-05-25T07:13:46Z</time>
      </trkpt>
      <trkpt lat="12.965706009417772" lon="101.047234972938895">
        <ele>161.159999999999997</ele>
        <time>2013-05-25T07:14:03Z</time>
      </trkpt>
      <trkpt lat="12.966290982440114" lon="101.047573015093803">
        <ele>159.719999999999999</ele>
        <time>2013-05-25T07:14:19Z</time>
      </trkpt>
      <trkpt lat="12.966847037896514" lon="101.048328978940845">
        <ele>158.27000000000001</ele>
        <time>2013-05-25T07:14:41Z</time>
      </trkpt>
      <trkpt lat="12.967277029529214" lon="101.04846803471446">
        <ele>158.27000000000001</ele>
        <time>2013-05-25T07:14:50Z</time>
      </trkpt>
      <trkpt lat="12.968559041619301" lon="101.048241974785924">
        <ele>152.030000000000001</ele>
        <time>2013-05-25T07:15:12Z</time>
      </trkpt>
      <trkpt lat="12.969519020989537" lon="101.048458982259035">
        <ele>145.780000000000001</ele>
        <time>2013-05-25T07:15:28Z</time>
      </trkpt>
      <trkpt lat="12.96982403844595" lon="101.048006024211645">
        <ele>147.219999999999999</ele>
        <time>2013-05-25T07:15:43Z</time>
      </trkpt>
      <trkpt lat="12.970268027856946" lon="101.047635041177273">
        <ele>148.659999999999997</ele>
        <time>2013-05-25T07:16:12Z</time>
      </trkpt>
      <trkpt lat="12.970559969544411" lon="101.047321977093816">
        <ele>149.139999999999986</ele>
        <time>2013-05-25T07:16:27Z</time>
      </trkpt>
      <trkpt lat="12.971138991415501" lon="101.047833021730185">
        <ele>145.780000000000001</ele>
        <time>2013-05-25T07:16:45Z</time>
      </trkpt>
      <trkpt lat="12.971142008900642" lon="101.0482760053128">
        <ele>143.849999999999994</ele>
        <time>2013-05-25T07:16:57Z</time>
      </trkpt>
      <trkpt lat="12.971450965851545" lon="101.048793001100421">
        <ele>140.969999999999999</ele>
        <time>2013-05-25T07:17:09Z</time>
      </trkpt>
      <trkpt lat="12.971317023038864" lon="101.049335980787873">
        <ele>139.530000000000001</ele>
        <time>2013-05-25T07:17:26Z</time>
      </trkpt>
      <trkpt lat="12.971579963341355" lon="101.049622977152467">
        <ele>140.490000000000009</ele>
        <time>2013-05-25T07:17:36Z</time>
      </trkpt>
      <trkpt lat="12.971969973295927" lon="101.050070989876986">
        <ele>135.680000000000007</ele>
        <time>2013-05-25T07:18:15Z</time>
      </trkpt>
      <trkpt lat="12.971900990232825" lon="101.050805998966098">
        <ele>138.090000000000003</ele>
        <time>2013-05-25T07:18:50Z</time>
      </trkpt>
      <trkpt lat="12.971994029358029" lon="101.051199026405811">
        <ele>138.569999999999993</ele>
        <time>2013-05-25T07:19:06Z</time>
      </trkpt>
      <trkpt lat="12.972537009045482" lon="101.051479987800121">
        <ele>142.889999999999986</ele>
        <time>2013-05-25T07:19:37Z</time>
      </trkpt>
      <trkpt lat="12.97261998988688" lon="101.051731025800109">
        <ele>144.340000000000003</ele>
        <time>2013-05-25T07:19:50Z</time>
      </trkpt>
      <trkpt lat="12.973075965419412" lon="101.052209967747331">
        <ele>145.780000000000001</ele>
        <time>2013-05-25T07:20:16Z</time>
      </trkpt>
      <trkpt lat="12.973424987867475" lon="101.052358997985721">
        <ele>146.740000000000009</ele>
        <time>2013-05-25T07:20:30Z</time>
      </trkpt>
      <trkpt lat="12.974435007199645" lon="101.052549015730619">
        <ele>150.099999999999994</ele>
        <time>2013-05-25T07:21:13Z</time>
      </trkpt>
      <trkpt lat="12.974507007747889" lon="101.052111983299255">
        <ele>150.099999999999994</ele>
        <time>2013-05-25T07:21:25Z</time>
      </trkpt>
      <trkpt lat="12.975149983540177" lon="101.051880978047848">
        <ele>151.060000000000002</ele>
        <time>2013-05-25T07:21:49Z</time>
      </trkpt>
      <trkpt lat="12.976528974249959" lon="101.052200999110937">
        <ele>154.430000000000007</ele>
        <time>2013-05-25T07:22:37Z</time>
      </trkpt>
      <trkpt lat="12.978128995746374" lon="101.052297977730632">
        <ele>161.159999999999997</ele>
        <time>2013-05-25T07:24:16Z</time>
      </trkpt>
      <trkpt lat="12.978564016520977" lon="101.052467962726951">
        <ele>163.080000000000013</ele>
        <time>2013-05-25T07:24:58Z</time>
      </trkpt>
      <trkpt lat="12.978910021483898" lon="101.052323039621115">
        <ele>165.960000000000008</ele>
        <time>2013-05-25T07:25:22Z</time>
      </trkpt>
      <trkpt lat="12.979028038680553" lon="101.052203010767698">
        <ele>166.930000000000007</ele>
        <time>2013-05-25T07:25:33Z</time>
      </trkpt>
      <trkpt lat="12.978997025638819" lon="101.051908973604441">
        <ele>169.810000000000002</ele>
        <time>2013-05-25T07:25:47Z</time>
      </trkpt>
      <trkpt lat="12.978817988187075" lon="101.051527010276914">
        <ele>169.810000000000002</ele>
        <time>2013-05-25T07:26:03Z</time>
      </trkpt>
      <trkpt lat="12.9788270406425" lon="101.050854027271271">
        <ele>171.72999999999999</ele>
        <time>2013-05-25T07:26:29Z</time>
      </trkpt>
      <trkpt lat="12.978882025927305" lon="101.050516990944743">
        <ele>172.210000000000008</ele>
        <time>2013-05-25T07:26:44Z</time>
      </trkpt>
      <trkpt lat="12.980189016088843" lon="101.048464011400938">
        <ele>184.22999999999999</ele>
        <time>2013-05-25T07:28:52Z</time>
      </trkpt>
      <trkpt lat="12.980027999728918" lon="101.048281034454703">
        <ele>180.379999999999995</ele>
        <time>2013-05-25T07:29:00Z</time>
      </trkpt>
      <trkpt lat="12.979951975867152" lon="101.047853976488113">
        <ele>177.97999999999999</ele>
        <time>2013-05-25T07:29:10Z</time>
      </trkpt>
      <trkpt lat="12.980194967240095" lon="101.046850997954607">
        <ele>173.659999999999997</ele>
        <time>2013-05-25T07:29:28Z</time>
      </trkpt>
      <trkpt lat="12.980158003047109" lon="101.046570036560297">
        <ele>169.810000000000002</ele>
        <time>2013-05-25T07:29:34Z</time>
      </trkpt>
      <trkpt lat="12.979540005326271" lon="101.04599897749722">
        <ele>162.599999999999994</ele>
        <time>2013-05-25T07:29:45Z</time>
      </trkpt>
      <trkpt lat="12.980108968913555" lon="101.044586040079594">
        <ele>160.199999999999989</ele>
        <time>2013-05-25T07:30:27Z</time>
      </trkpt>
      <trkpt lat="12.980147022753954" lon="101.04412998072803">
        <ele>159.240000000000009</ele>
        <time>2013-05-25T07:30:39Z</time>
      </trkpt>
      <trkpt lat="12.979928003624082" lon="101.043533021584153">
        <ele>158.75</ele>
        <time>2013-05-25T07:30:54Z</time>
      </trkpt>
      <trkpt lat="12.980106035247445" lon="101.043301010504365">
        <ele>158.75</ele>
        <time>2013-05-25T07:31:05Z</time>
      </trkpt>
      <trkpt lat="12.980513982474804" lon="101.043407041579485">
        <ele>159.240000000000009</ele>
        <time>2013-05-25T07:31:22Z</time>
      </trkpt>
      <trkpt lat="12.983731040731072" lon="101.043406035751104">
        <ele>171.72999999999999</ele>
        <time>2013-05-25T07:33:57Z</time>
      </trkpt>
      <trkpt lat="12.985284961760044" lon="101.043334035202861">
        <ele>168.370000000000005</ele>
        <time>2013-05-25T07:34:39Z</time>
      </trkpt>
      <trkpt lat="12.98617604188621" lon="101.04423500597477">
        <ele>172.210000000000008</ele>
        <time>2013-05-25T07:35:47Z</time>
      </trkpt>
      <trkpt lat="12.986871991306543" lon="101.045449962839484">
        <ele>179.900000000000006</ele>
        <time>2013-05-25T07:36:56Z</time>
      </trkpt>
      <trkpt lat="12.987022027373314" lon="101.045642998069525">
        <ele>180.379999999999995</ele>
        <time>2013-05-25T07:37:10Z</time>
      </trkpt>
      <trkpt lat="12.987776985391974" lon="101.046194024384022">
        <ele>183.27000000000001</ele>
        <time>2013-05-25T07:37:57Z</time>
      </trkpt>
      <trkpt lat="12.989295031875372" lon="101.046287985518575">
        <ele>186.150000000000006</ele>
        <time>2013-05-25T07:38:55Z</time>
      </trkpt>
      <trkpt lat="12.98987396992743" lon="101.047135982662439">
        <ele>190.47999999999999</ele>
        <time>2013-05-25T07:39:36Z</time>
      </trkpt>
      <trkpt lat="12.990767983719707" lon="101.048117000609636">
        <ele>189.52000000000001</ele>
        <time>2013-05-25T07:40:14Z</time>
      </trkpt>
      <trkpt lat="12.990965964272618" lon="101.048589991405606">
        <ele>188.560000000000002</ele>
        <time>2013-05-25T07:40:29Z</time>
      </trkpt>
      <trkpt lat="12.991010975092649" lon="101.048836000263691">
        <ele>185.669999999999987</ele>
        <time>2013-05-25T07:41:34Z</time>
      </trkpt>
      <trkpt lat="12.991105020046234" lon="101.049102963879704">
        <ele>179.900000000000006</ele>
        <time>2013-05-25T07:41:43Z</time>
      </trkpt>
      <trkpt lat="12.99169703386724" lon="101.049833027645946">
        <ele>177.02000000000001</ele>
        <time>2013-05-25T07:42:16Z</time>
      </trkpt>
      <trkpt lat="12.991096973419189" lon="101.049087038263679">
        <ele>179.900000000000006</ele>
        <time>2013-05-25T07:43:06Z</time>
      </trkpt>
      <trkpt lat="12.990987002849579" lon="101.048745978623629">
        <ele>188.080000000000013</ele>
        <time>2013-05-25T07:43:56Z</time>
      </trkpt>
      <trkpt lat="12.990615013986826" lon="101.047839978709817">
        <ele>190</ele>
        <time>2013-05-25T07:45:11Z</time>
      </trkpt>
      <trkpt lat="12.990798996761441" lon="101.047456003725529">
        <ele>190</ele>
        <time>2013-05-25T07:45:27Z</time>
      </trkpt>
      <trkpt lat="12.990838978439569" lon="101.046819984912872">
        <ele>191.439999999999998</ele>
        <time>2013-05-25T07:45:53Z</time>
      </trkpt>
      <trkpt lat="12.990522980690002" lon="101.04649200104177">
        <ele>190.47999999999999</ele>
        <time>2013-05-25T07:46:08Z</time>
      </trkpt>
      <trkpt lat="12.990441005676985" lon="101.046185977756977">
        <ele>190</ele>
        <time>2013-05-25T07:46:18Z</time>
      </trkpt>
      <trkpt lat="12.990297004580498" lon="101.045993026345968">
        <ele>187.590000000000003</ele>
        <time>2013-05-25T07:46:26Z</time>
      </trkpt>
      <trkpt lat="12.98985100351274" lon="101.045966958627105">
        <ele>182.310000000000002</ele>
        <time>2013-05-25T07:46:43Z</time>
      </trkpt>
      <trkpt lat="12.989546991884708" lon="101.044934978708625">
        <ele>181.830000000000013</ele>
        <time>2013-05-25T07:47:28Z</time>
      </trkpt>
      <trkpt lat="12.989774979650974" lon="101.044548992067575">
        <ele>184.22999999999999</ele>
        <time>2013-05-25T07:48:04Z</time>
      </trkpt>
      <trkpt lat="12.990588024258614" lon="101.043885983526707">
        <ele>191.919999999999987</ele>
        <time>2013-05-25T07:49:04Z</time>
      </trkpt>
      <trkpt lat="12.990760020911694" lon="101.043625976890326">
        <ele>192.879999999999995</ele>
        <time>2013-05-25T07:49:18Z</time>
      </trkpt>
      <trkpt lat="12.990726996213198" lon="101.043085008859634">
        <ele>194.800000000000011</ele>
        <time>2013-05-25T07:49:44Z</time>
      </trkpt>
      <trkpt lat="12.990302033722401" lon="101.042112037539482">
        <ele>193.360000000000014</ele>
        <time>2013-05-25T07:50:18Z</time>
      </trkpt>
      <trkpt lat="12.990098018199205" lon="101.041574003174901">
        <ele>190</ele>
        <time>2013-05-25T07:50:33Z</time>
      </trkpt>
      <trkpt lat="12.989495024085045" lon="101.040935972705483">
        <ele>184.22999999999999</ele>
        <time>2013-05-25T07:51:15Z</time>
      </trkpt>
      <trkpt lat="12.989195035770535" lon="101.040803035721183">
        <ele>183.27000000000001</ele>
        <time>2013-05-25T07:51:23Z</time>
      </trkpt>
      <trkpt lat="12.988328011706471" lon="101.040603965520859">
        <ele>182.789999999999992</ele>
        <time>2013-05-25T07:51:46Z</time>
      </trkpt>
      <trkpt lat="12.987409019842744" lon="101.040664985775948">
        <ele>186.629999999999995</ele>
        <time>2013-05-25T07:52:36Z</time>
      </trkpt>
      <trkpt lat="12.986222980543971" lon="101.040374971926212">
        <ele>175.580000000000013</ele>
        <time>2013-05-25T07:53:16Z</time>
      </trkpt>
      <trkpt lat="12.98518898896873" lon="101.039512977004051">
        <ele>170.77000000000001</ele>
        <time>2013-05-25T07:53:59Z</time>
      </trkpt>
      <trkpt lat="12.984826974570751" lon="101.039083991199732">
        <ele>168.370000000000005</ele>
        <time>2013-05-25T07:54:21Z</time>
      </trkpt>
      <trkpt lat="12.984300004318357" lon="101.038842005655169">
        <ele>165.960000000000008</ele>
        <time>2013-05-25T07:54:40Z</time>
      </trkpt>
      <trkpt lat="12.983626015484333" lon="101.038307994604111">
        <ele>165.47999999999999</ele>
        <time>2013-05-25T07:55:51Z</time>
      </trkpt>
      <trkpt lat="12.982766032218933" lon="101.038404973223805">
        <ele>164.52000000000001</ele>
        <time>2013-05-25T07:56:14Z</time>
      </trkpt>
      <trkpt lat="12.982119033113122" lon="101.038635978475213">
        <ele>160.199999999999989</ele>
        <time>2013-05-25T07:56:51Z</time>
      </trkpt>
      <trkpt lat="12.983187977224588" lon="101.038232976570725">
        <ele>165</ele>
        <time>2013-05-25T07:57:49Z</time>
      </trkpt>
      <trkpt lat="12.983098961412907" lon="101.037976993247867">
        <ele>166.449999999999989</ele>
        <time>2013-05-25T07:58:01Z</time>
      </trkpt>
      <trkpt lat="12.983231982216239" lon="101.037815976887941">
        <ele>166.449999999999989</ele>
        <time>2013-05-25T07:58:10Z</time>
      </trkpt>
      <trkpt lat="12.983831958845258" lon="101.037678010761738">
        <ele>167.889999999999986</ele>
        <time>2013-05-25T07:58:37Z</time>
      </trkpt>
      <trkpt lat="12.983713019639254" lon="101.036776034161448">
        <ele>168.849999999999994</ele>
        <time>2013-05-25T07:59:13Z</time>
      </trkpt>
      <trkpt lat="12.983001982793212" lon="101.036481996998191">
        <ele>165.960000000000008</ele>
        <time>2013-05-25T07:59:50Z</time>
      </trkpt>
      <trkpt lat="12.985496018081903" lon="101.036365991458297">
        <ele>174.139999999999986</ele>
        <time>2013-05-25T08:02:19Z</time>
      </trkpt>
      <trkpt lat="12.985483026131988" lon="101.03504098020494">
        <ele>174.620000000000005</ele>
        <time>2013-05-25T08:03:08Z</time>
      </trkpt>
      <trkpt lat="12.986710974946618" lon="101.035025976598263">
        <ele>179.900000000000006</ele>
        <time>2013-05-25T08:04:05Z</time>
      </trkpt>
      <trkpt lat="12.98763801343739" lon="101.035339962691069">
        <ele>184.22999999999999</ele>
        <time>2013-05-25T08:04:50Z</time>
      </trkpt>
      <trkpt lat="12.987904977053404" lon="101.035309033468366">
        <ele>184.710000000000008</ele>
        <time>2013-05-25T08:05:03Z</time>
      </trkpt>
      <trkpt lat="12.988290963694453" lon="101.034664968028665">
        <ele>188.560000000000002</ele>
        <time>2013-05-25T08:07:15Z</time>
      </trkpt>
      <trkpt lat="12.988628000020981" lon="101.033511031419039">
        <ele>188.080000000000013</ele>
        <time>2013-05-25T08:07:52Z</time>
      </trkpt>
      <trkpt lat="12.98843203112483" lon="101.033277008682489">
        <ele>185.189999999999998</ele>
        <time>2013-05-25T08:08:02Z</time>
      </trkpt>
      <trkpt lat="12.98714398406446" lon="101.03308598510921">
        <ele>179.900000000000006</ele>
        <time>2013-05-25T08:08:31Z</time>
      </trkpt>
      <trkpt lat="12.987045999616385" lon="101.033051032572985">
        <ele>178.939999999999998</ele>
        <time>2013-05-25T08:08:33Z</time>
      </trkpt>
      <trkpt lat="12.986057018861175" lon="101.032220972701907">
        <ele>179.419999999999987</ele>
        <time>2013-05-25T08:09:03Z</time>
      </trkpt>
      <trkpt lat="12.985830036923289" lon="101.03209599852562">
        <ele>178.460000000000008</ele>
        <time>2013-05-25T08:09:09Z</time>
      </trkpt>
      <trkpt lat="12.985068038105965" lon="101.031997008249164">
        <ele>176.539999999999992</ele>
        <time>2013-05-25T08:09:28Z</time>
      </trkpt>
      <trkpt lat="12.984750028699636" lon="101.032071020454168">
        <ele>175.580000000000013</ele>
        <time>2013-05-25T08:09:37Z</time>
      </trkpt>
      <trkpt lat="12.984380973502994" lon="101.031939005479217">
        <ele>172.689999999999998</ele>
        <time>2013-05-25T08:09:48Z</time>
      </trkpt>
      <trkpt lat="12.983298031613231" lon="101.03119402192533">
        <ele>166.930000000000007</ele>
        <time>2013-05-25T08:10:35Z</time>
      </trkpt>
      <trkpt lat="12.982706017792225" lon="101.03115102276206">
        <ele>167.409999999999997</ele>
        <time>2013-05-25T08:11:05Z</time>
      </trkpt>
      <trkpt lat="12.982280971482396" lon="101.031283037737012">
        <ele>165.47999999999999</ele>
        <time>2013-05-25T08:11:23Z</time>
      </trkpt>
      <trkpt lat="12.982020964846015" lon="101.03065699338913">
        <ele>162.599999999999994</ele>
        <time>2013-05-25T08:11:49Z</time>
      </trkpt>
      <trkpt lat="12.980866022408009" lon="101.030963016673923">
        <ele>165.47999999999999</ele>
        <time>2013-05-25T08:12:32Z</time>
      </trkpt>
      <trkpt lat="12.979263989254832" lon="101.031070975586772">
        <ele>170.77000000000001</ele>
        <time>2013-05-25T08:13:47Z</time>
      </trkpt>
      <trkpt lat="12.978684967383742" lon="101.031111963093281">
        <ele>171.25</ele>
        <time>2013-05-25T08:14:09Z</time>
      </trkpt>
      <trkpt lat="12.9774110019207" lon="101.028868965804577">
        <ele>163.080000000000013</ele>
        <time>2013-05-25T08:15:22Z</time>
      </trkpt>
      <trkpt lat="12.976783029735088" lon="101.028494965285063">
        <ele>168.849999999999994</ele>
        <time>2013-05-25T08:16:03Z</time>
      </trkpt>
      <trkpt lat="12.976211970672011" lon="101.028002025559545">
        <ele>174.620000000000005</ele>
        <time>2013-05-25T08:16:46Z</time>
      </trkpt>
      <trkpt lat="12.976071992889047" lon="101.027762973681092">
        <ele>176.539999999999992</ele>
        <time>2013-05-25T08:17:03Z</time>
      </trkpt>
      <trkpt lat="12.976019019261003" lon="101.027659038081765">
        <ele>177.02000000000001</ele>
        <time>2013-05-25T08:17:09Z</time>
      </trkpt>
      <trkpt lat="12.975643007084727" lon="101.027445970103145">
        <ele>181.349999999999994</ele>
        <time>2013-05-25T08:17:36Z</time>
      </trkpt>
      <trkpt lat="12.975153001025319" lon="101.027050008997321">
        <ele>184.710000000000008</ele>
        <time>2013-05-25T08:18:13Z</time>
      </trkpt>
      <trkpt lat="12.975136991590261" lon="101.026636026799679">
        <ele>183.75</ele>
        <time>2013-05-25T08:18:28Z</time>
      </trkpt>
      <trkpt lat="12.975424993783236" lon="101.026088017970324">
        <ele>180.379999999999995</ele>
        <time>2013-05-25T08:18:50Z</time>
      </trkpt>
      <trkpt lat="12.97511201351881" lon="101.025332976132631">
        <ele>178.460000000000008</ele>
        <time>2013-05-25T08:19:13Z</time>
      </trkpt>
      <trkpt lat="12.974829040467739" lon="101.025185035541654">
        <ele>176.539999999999992</ele>
        <time>2013-05-25T08:19:26Z</time>
      </trkpt>
      <trkpt lat="12.974586971104145" lon="101.024794019758701">
        <ele>176.060000000000002</ele>
        <time>2013-05-25T08:19:39Z</time>
      </trkpt>
      <trkpt lat="12.973789013922215" lon="101.024610958993435">
        <ele>167.409999999999997</ele>
        <time>2013-05-25T08:20:03Z</time>
      </trkpt>
      <trkpt lat="12.973210997879505" lon="101.023930013179779">
        <ele>162.599999999999994</ele>
        <time>2013-05-25T08:20:26Z</time>
      </trkpt>
      <trkpt lat="12.971647018566728" lon="101.022657975554466">
        <ele>156.349999999999994</ele>
        <time>2013-05-25T08:21:19Z</time>
      </trkpt>
      <trkpt lat="12.970932964235544" lon="101.021467996761203">
        <ele>152.509999999999991</ele>
        <time>2013-05-25T08:21:43Z</time>
      </trkpt>
      <trkpt lat="12.97004004009068" lon="101.020781015977263">
        <ele>150.099999999999994</ele>
        <time>2013-05-25T08:22:01Z</time>
      </trkpt>
      <trkpt lat="12.969464035704732" lon="101.020057993009686">
        <ele>157.310000000000002</ele>
        <time>2013-05-25T08:22:37Z</time>
      </trkpt>
      <trkpt lat="12.969304025173187" lon="101.019974006339908">
        <ele>156.830000000000013</ele>
        <time>2013-05-25T08:22:43Z</time>
      </trkpt>
      <trkpt lat="12.969135968014598" lon="101.019887002184987">
        <ele>154.430000000000007</ele>
        <time>2013-05-25T08:22:48Z</time>
      </trkpt>
      <trkpt lat="12.96900998800993" lon="101.019516019150615">
        <ele>153.949999999999989</ele>
        <time>2013-05-25T08:23:11Z</time>
      </trkpt>
      <trkpt lat="12.969110989943147" lon="101.019209995865822">
        <ele>160.199999999999989</ele>
        <time>2013-05-25T08:23:52Z</time>
      </trkpt>
      <trkpt lat="12.968887025490403" lon="101.018567020073533">
        <ele>157.310000000000002</ele>
        <time>2013-05-25T08:24:31Z</time>
      </trkpt>
      <trkpt lat="12.968980986624956" lon="101.0184530261904">
        <ele>159.240000000000009</ele>
        <time>2013-05-25T08:24:42Z</time>
      </trkpt>
      <trkpt lat="12.968895994126797" lon="101.018000990152359">
        <ele>156.349999999999994</ele>
        <time>2013-05-25T08:25:04Z</time>
      </trkpt>
      <trkpt lat="12.968569016084075" lon="101.017798986285925">
        <ele>153.949999999999989</ele>
        <time>2013-05-25T08:25:17Z</time>
      </trkpt>
      <trkpt lat="12.96830297447741" lon="101.017881967127323">
        <ele>152.030000000000001</ele>
        <time>2013-05-25T08:25:24Z</time>
      </trkpt>
      <trkpt lat="12.966601029038429" lon="101.016380013898015">
        <ele>141.930000000000007</ele>
        <time>2013-05-25T08:26:28Z</time>
      </trkpt>
      <trkpt lat="12.966302968561649" lon="101.015698984265327">
        <ele>142.889999999999986</ele>
        <time>2013-05-25T08:26:54Z</time>
      </trkpt>
      <trkpt lat="12.966264998540282" lon="101.015506032854319">
        <ele>140.969999999999999</ele>
        <time>2013-05-25T08:27:00Z</time>
      </trkpt>
      <trkpt lat="12.966402964666486" lon="101.014978978782892">
        <ele>139.050000000000011</ele>
        <time>2013-05-25T08:27:15Z</time>
      </trkpt>
      <trkpt lat="12.966104988008738" lon="101.014117989689112">
        <ele>137.129999999999995</ele>
        <time>2013-05-25T08:27:42Z</time>
      </trkpt>
      <trkpt lat="12.965897032991052" lon="101.013036975637078">
        <ele>133.759999999999991</ele>
        <time>2013-05-25T08:28:09Z</time>
      </trkpt>
      <trkpt lat="12.965523032471538" lon="101.011929977685213">
        <ele>127.989999999999995</ele>
        <time>2013-05-25T08:28:32Z</time>
      </trkpt>
      <trkpt lat="12.960547031834722" lon="101.013417011126876">
        <ele>139.050000000000011</ele>
        <time>2013-05-25T08:40:52Z</time>
      </trkpt>
      <trkpt lat="12.959553021937609" lon="101.013933001086116">
        <ele>135.680000000000007</ele>
        <time>2013-05-25T08:41:46Z</time>
      </trkpt>
      <trkpt lat="12.959271976724267" lon="101.015349961817265">
        <ele>139.050000000000011</ele>
        <time>2013-05-25T08:42:18Z</time>
      </trkpt>
      <trkpt lat="12.95884701423347" lon="101.016013976186514">
        <ele>140.490000000000009</ele>
        <time>2013-05-25T08:42:37Z</time>
      </trkpt>
      <trkpt lat="12.957808999344707" lon="101.017219964414835">
        <ele>143.849999999999994</ele>
        <time>2013-05-25T08:43:16Z</time>
      </trkpt>
      <trkpt lat="12.957531977444887" lon="101.017816001549363">
        <ele>146.259999999999991</ele>
        <time>2013-05-25T08:43:33Z</time>
      </trkpt>
      <trkpt lat="12.957151019945741" lon="101.018299972638488">
        <ele>147.699999999999989</ele>
        <time>2013-05-25T08:43:50Z</time>
      </trkpt>
      <trkpt lat="12.957211034372449" lon="101.018986031413078">
        <ele>153.469999999999999</ele>
        <time>2013-05-25T08:44:19Z</time>
      </trkpt>
      <trkpt lat="12.958172019571066" lon="101.019904017448425">
        <ele>169.810000000000002</ele>
        <time>2013-05-25T08:45:31Z</time>
      </trkpt>
      <trkpt lat="12.958613997325301" lon="101.02043098770082">
        <ele>172.689999999999998</ele>
        <time>2013-05-25T08:46:05Z</time>
      </trkpt>
      <trkpt lat="12.959459982812405" lon="101.021627001464367">
        <ele>172.210000000000008</ele>
        <time>2013-05-25T08:46:43Z</time>
      </trkpt>
      <trkpt lat="12.959692999720573" lon="101.023211013525724">
        <ele>165</ele>
        <time>2013-05-25T08:47:11Z</time>
      </trkpt>
      <trkpt lat="12.95990296639502" lon="101.02341502904892">
        <ele>165</ele>
        <time>2013-05-25T08:47:24Z</time>
      </trkpt>
      <trkpt lat="12.960103964433074" lon="101.023335987702012">
        <ele>165</ele>
        <time>2013-05-25T08:47:33Z</time>
      </trkpt>
      <trkpt lat="12.960322983562946" lon="101.02359096519649">
        <ele>163.560000000000002</ele>
        <time>2013-05-25T08:47:42Z</time>
      </trkpt>
      <trkpt lat="12.960813995450735" lon="101.025273967534304">
        <ele>162.120000000000005</ele>
        <time>2013-05-25T08:48:21Z</time>
      </trkpt>
      <trkpt lat="12.960962019860744" lon="101.025336999446154">
        <ele>163.080000000000013</ele>
        <time>2013-05-25T08:48:26Z</time>
      </trkpt>
      <trkpt lat="12.96288600191474" lon="101.024345001205802">
        <ele>166.930000000000007</ele>
        <time>2013-05-25T08:49:39Z</time>
      </trkpt>
      <trkpt lat="12.962967976927757" lon="101.025171037763357">
        <ele>169.810000000000002</ele>
        <time>2013-05-25T08:50:13Z</time>
      </trkpt>
      <trkpt lat="12.963433004915714" lon="101.025769002735615">
        <ele>174.620000000000005</ele>
        <time>2013-05-25T08:51:15Z</time>
      </trkpt>
      <trkpt lat="12.963710026815534" lon="101.026040995493531">
        <ele>176.060000000000002</ele>
        <time>2013-05-25T08:51:35Z</time>
      </trkpt>
      <trkpt lat="12.964716022834182" lon="101.026302007958293">
        <ele>181.830000000000013</ele>
        <time>2013-05-25T08:52:40Z</time>
      </trkpt>
      <trkpt lat="12.965528983622789" lon="101.02608198300004">
        <ele>187.110000000000014</ele>
        <time>2013-05-25T08:54:02Z</time>
      </trkpt>
      <trkpt lat="12.96628100797534" lon="101.026405021548271">
        <ele>195.77000000000001</ele>
        <time>2013-05-25T08:55:04Z</time>
      </trkpt>
      <trkpt lat="12.966361977159977" lon="101.02663803845644">
        <ele>196.25</ele>
        <time>2013-05-25T08:55:41Z</time>
      </trkpt>
      <trkpt lat="12.966272039338946" lon="101.026846999302506">
        <ele>193.360000000000014</ele>
        <time>2013-05-25T08:55:55Z</time>
      </trkpt>
      <trkpt lat="12.965770969167352" lon="101.027141036465764">
        <ele>185.189999999999998</ele>
        <time>2013-05-25T08:56:20Z</time>
      </trkpt>
      <trkpt lat="12.965422030538321" lon="101.027096025645733">
        <ele>184.22999999999999</ele>
        <time>2013-05-25T08:56:31Z</time>
      </trkpt>
      <trkpt lat="12.963811028748751" lon="101.026591015979648">
        <ele>177.5</ele>
        <time>2013-05-25T08:57:01Z</time>
      </trkpt>
      <trkpt lat="12.962849959731102" lon="101.025945022702217">
        <ele>172.689999999999998</ele>
        <time>2013-05-25T08:57:20Z</time>
      </trkpt>
      <trkpt lat="12.961635002866387" lon="101.025626007467508">
        <ele>165.47999999999999</ele>
        <time>2013-05-25T08:57:46Z</time>
      </trkpt>
      <trkpt lat="12.962223999202251" lon="101.026593027636409">
        <ele>166.930000000000007</ele>
        <time>2013-05-25T08:58:22Z</time>
      </trkpt>
      <trkpt lat="12.962248977273703" lon="101.026667961850762">
        <ele>166.930000000000007</ele>
        <time>2013-05-25T08:58:26Z</time>
      </trkpt>
      <trkpt lat="12.962444024160504" lon="101.026710039004683">
        <ele>168.370000000000005</ele>
        <time>2013-05-25T08:58:37Z</time>
      </trkpt>
      <trkpt lat="12.962766978889704" lon="101.027106000110507">
        <ele>167.409999999999997</ele>
        <time>2013-05-25T08:58:56Z</time>
      </trkpt>
      <trkpt lat="12.962673017755151" lon="101.027733972296119">
        <ele>172.689999999999998</ele>
        <time>2013-05-25T08:59:36Z</time>
      </trkpt>
      <trkpt lat="12.96239297837019" lon="101.027745036408305">
        <ele>173.169999999999987</ele>
        <time>2013-05-25T08:59:50Z</time>
      </trkpt>
      <trkpt lat="12.962040016427636" lon="101.027663983404636">
        <ele>172.689999999999998</ele>
        <time>2013-05-25T09:00:03Z</time>
      </trkpt>
      <trkpt lat="12.961671967059374" lon="101.027775965631008">
        <ele>172.689999999999998</ele>
        <time>2013-05-25T09:00:16Z</time>
      </trkpt>
      <trkpt lat="12.961465017870069" lon="101.02805801667273">
        <ele>173.169999999999987</ele>
        <time>2013-05-25T09:00:28Z</time>
      </trkpt>
      <trkpt lat="12.961075007915497" lon="101.028807023540139">
        <ele>169.330000000000013</ele>
        <time>2013-05-25T09:00:52Z</time>
      </trkpt>
      <trkpt lat="12.961153965443373" lon="101.029213964939117">
        <ele>169.810000000000002</ele>
        <time>2013-05-25T09:01:05Z</time>
      </trkpt>
      <trkpt lat="12.961570965126157" lon="101.029741019010544">
        <ele>172.689999999999998</ele>
        <time>2013-05-25T09:01:34Z</time>
      </trkpt>
      <trkpt lat="12.961814040318131" lon="101.030320962890983">
        <ele>173.659999999999997</ele>
        <time>2013-05-25T09:02:05Z</time>
      </trkpt>
      <trkpt lat="12.962054014205933" lon="101.030405033379793">
        <ele>176.060000000000002</ele>
        <time>2013-05-25T09:02:18Z</time>
      </trkpt>
      <trkpt lat="12.96211201697588" lon="101.03063696064055">
        <ele>175.580000000000013</ele>
        <time>2013-05-25T09:02:38Z</time>
      </trkpt>
      <trkpt lat="12.962868986651301" lon="101.030750032514334">
        <ele>180.870000000000005</ele>
        <time>2013-05-25T09:03:20Z</time>
      </trkpt>
      <trkpt lat="12.963126981630921" lon="101.030843993648887">
        <ele>180.870000000000005</ele>
        <time>2013-05-25T09:03:31Z</time>
      </trkpt>
      <trkpt lat="12.96338296495378" lon="101.030729999765754">
        <ele>181.830000000000013</ele>
        <time>2013-05-25T09:03:43Z</time>
      </trkpt>
      <trkpt lat="12.963645989075303" lon="101.030885986983776">
        <ele>179.900000000000006</ele>
        <time>2013-05-25T09:03:55Z</time>
      </trkpt>
      <trkpt lat="12.963627967983484" lon="101.031273985281587">
        <ele>177.5</ele>
        <time>2013-05-25T09:04:06Z</time>
      </trkpt>
      <trkpt lat="12.962768990546465" lon="101.032276041805744">
        <ele>170.289999999999992</ele>
        <time>2013-05-25T09:04:30Z</time>
      </trkpt>
      <trkpt lat="12.961739022284746" lon="101.032813992351294">
        <ele>167.409999999999997</ele>
        <time>2013-05-25T09:05:02Z</time>
      </trkpt>
      <trkpt lat="12.961013987660408" lon="101.033634999766946">
        <ele>165</ele>
        <time>2013-05-25T09:05:23Z</time>
      </trkpt>
      <trkpt lat="12.958582984283566" lon="101.035478012636304">
        <ele>164.52000000000001</ele>
        <time>2013-05-25T09:06:32Z</time>
      </trkpt>
      <trkpt lat="12.957863984629512" lon="101.035537021234632">
        <ele>163.560000000000002</ele>
        <time>2013-05-25T09:06:49Z</time>
      </trkpt>
      <trkpt lat="12.957135010510683" lon="101.034942995756865">
        <ele>168.370000000000005</ele>
        <time>2013-05-25T09:07:26Z</time>
      </trkpt>
      <trkpt lat="12.955765994265676" lon="101.034458018839359">
        <ele>165</ele>
        <time>2013-05-25T09:08:01Z</time>
      </trkpt>
      <trkpt lat="12.955545969307423" lon="101.033918978646398">
        <ele>163.080000000000013</ele>
        <time>2013-05-25T09:08:13Z</time>
      </trkpt>
      <trkpt lat="12.95588300563395" lon="101.031481018289924">
        <ele>160.199999999999989</ele>
        <time>2013-05-25T09:09:16Z</time>
      </trkpt>
      <trkpt lat="12.955659963190556" lon="101.031287983059883">
        <ele>158.27000000000001</ele>
        <time>2013-05-25T09:09:23Z</time>
      </trkpt>
      <trkpt lat="12.953232983127236" lon="101.030959999188781">
        <ele>149.139999999999986</ele>
        <time>2013-05-25T09:10:08Z</time>
      </trkpt>
      <trkpt lat="12.953167017549276" lon="101.030837958678603">
        <ele>149.620000000000005</ele>
        <time>2013-05-25T09:10:24Z</time>
      </trkpt>
      <trkpt lat="12.953038020059466" lon="101.028577024117112">
        <ele>147.219999999999999</ele>
        <time>2013-05-25T09:11:42Z</time>
      </trkpt>
      <trkpt lat="12.953430963680148" lon="101.026928974315524">
        <ele>148.659999999999997</ele>
        <time>2013-05-25T09:12:19Z</time>
      </trkpt>
      <trkpt lat="12.953522996976972" lon="101.024912036955357">
        <ele>155.389999999999986</ele>
        <time>2013-05-25T09:13:12Z</time>
      </trkpt>
      <trkpt lat="12.953800018876791" lon="101.023345962166786">
        <ele>159.719999999999999</ele>
        <time>2013-05-25T09:13:53Z</time>
      </trkpt>
      <trkpt lat="12.953985007479787" lon="101.022648001089692">
        <ele>161.159999999999997</ele>
        <time>2013-05-25T09:14:11Z</time>
      </trkpt>
      <trkpt lat="12.954037981107831" lon="101.022297972813249">
        <ele>161.639999999999986</ele>
        <time>2013-05-25T09:14:22Z</time>
      </trkpt>
      <trkpt lat="12.952394960448146" lon="101.021696990355849">
        <ele>169.810000000000002</ele>
        <time>2013-05-25T09:15:40Z</time>
      </trkpt>
      <trkpt lat="12.952310973778367" lon="101.021299017593265">
        <ele>170.289999999999992</ele>
        <time>2013-05-25T09:15:54Z</time>
      </trkpt>
      <trkpt lat="12.952052978798747" lon="101.021045967936516">
        <ele>169.330000000000013</ele>
        <time>2013-05-25T09:16:05Z</time>
      </trkpt>
      <trkpt lat="12.951113032177091" lon="101.020832983776927">
        <ele>170.289999999999992</ele>
        <time>2013-05-25T09:16:33Z</time>
      </trkpt>
      <trkpt lat="12.95083299279213" lon="101.020906995981932">
        <ele>171.72999999999999</ele>
        <time>2013-05-25T09:16:47Z</time>
      </trkpt>
      <trkpt lat="12.950654961168766" lon="101.02111897431314">
        <ele>174.620000000000005</ele>
        <time>2013-05-25T09:17:02Z</time>
      </trkpt>
      <trkpt lat="12.950600981712341" lon="101.021450981497765">
        <ele>177.02000000000001</ele>
        <time>2013-05-25T09:17:19Z</time>
      </trkpt>
      <trkpt lat="12.950565023347735" lon="101.021700007840991">
        <ele>177.02000000000001</ele>
        <time>2013-05-25T09:17:30Z</time>
      </trkpt>
      <trkpt lat="12.950190016999841" lon="101.021851971745491">
        <ele>178.939999999999998</ele>
        <time>2013-05-25T09:17:47Z</time>
      </trkpt>
      <trkpt lat="12.949273036792874" lon="101.02180503308773">
        <ele>180.870000000000005</ele>
        <time>2013-05-25T09:18:21Z</time>
      </trkpt>
      <trkpt lat="12.948807002976537" lon="101.021479982882738">
        <ele>181.349999999999994</ele>
        <time>2013-05-25T09:18:40Z</time>
      </trkpt>
      <trkpt lat="12.948681022971869" lon="101.020509023219347">
        <ele>183.75</ele>
        <time>2013-05-25T09:19:12Z</time>
      </trkpt>
      <trkpt lat="12.948357984423637" lon="101.020307019352913">
        <ele>184.22999999999999</ele>
        <time>2013-05-25T09:19:25Z</time>
      </trkpt>
      <trkpt lat="12.947683995589614" lon="101.020207023248076">
        <ele>184.22999999999999</ele>
        <time>2013-05-25T09:19:43Z</time>
      </trkpt>
      <trkpt lat="12.947421977296472" lon="101.020138040184975">
        <ele>182.789999999999992</ele>
        <time>2013-05-25T09:19:49Z</time>
      </trkpt>
      <trkpt lat="12.94640801846981" lon="101.020372984930873">
        <ele>178.460000000000008</ele>
        <time>2013-05-25T09:20:06Z</time>
      </trkpt>
      <trkpt lat="12.94554996304214" lon="101.019738977774978">
        <ele>176.539999999999992</ele>
        <time>2013-05-25T09:20:27Z</time>
      </trkpt>
      <trkpt lat="12.943992018699646" lon="101.019338993355632">
        <ele>178.939999999999998</ele>
        <time>2013-05-25T09:21:06Z</time>
      </trkpt>
      <trkpt lat="12.943492038175464" lon="101.019395990297198">
        <ele>178.939999999999998</ele>
        <time>2013-05-25T09:21:21Z</time>
      </trkpt>
      <trkpt lat="12.943112002685666" lon="101.019428009167314">
        <ele>178.460000000000008</ele>
        <time>2013-05-25T09:21:30Z</time>
      </trkpt>
      <trkpt lat="12.942564999684691" lon="101.019721040502191">
        <ele>175.580000000000013</ele>
        <time>2013-05-25T09:21:43Z</time>
      </trkpt>
      <trkpt lat="12.941780034452677" lon="101.019750041887164">
        <ele>174.139999999999986</ele>
        <time>2013-05-25T09:22:02Z</time>
      </trkpt>
      <trkpt lat="12.941704010590911" lon="101.019702013581991">
        <ele>173.659999999999997</ele>
        <time>2013-05-25T09:22:04Z</time>
      </trkpt>
      <trkpt lat="12.941333027556539" lon="101.019318960607052">
        <ele>174.620000000000005</ele>
        <time>2013-05-25T09:22:18Z</time>
      </trkpt>
      <trkpt lat="12.940645040944219" lon="101.017505032941699">
        <ele>165.960000000000008</ele>
        <time>2013-05-25T09:22:50Z</time>
      </trkpt>
      <trkpt lat="12.940223012119532" lon="101.017003040760756">
        <ele>164.52000000000001</ele>
        <time>2013-05-25T09:23:00Z</time>
      </trkpt>
      <trkpt lat="12.940210020169616" lon="101.016956018283963">
        <ele>164.039999999999992</ele>
        <time>2013-05-25T09:23:01Z</time>
      </trkpt>
      <trkpt lat="12.940245978534222" lon="101.014129975810647">
        <ele>166.930000000000007</ele>
        <time>2013-05-25T09:24:04Z</time>
      </trkpt>
      <trkpt lat="12.939672991633415" lon="101.013244008645415">
        <ele>171.25</ele>
        <time>2013-05-25T09:24:43Z</time>
      </trkpt>
      <trkpt lat="12.939209975302219" lon="101.01239399984479">
        <ele>169.810000000000002</ele>
        <time>2013-05-25T09:25:09Z</time>
      </trkpt>
      <trkpt lat="12.938734972849488" lon="101.012130975723267">
        <ele>172.689999999999998</ele>
        <time>2013-05-25T09:25:27Z</time>
      </trkpt>
      <trkpt lat="12.938503967598081" lon="101.01215997710824">
        <ele>170.289999999999992</ele>
        <time>2013-05-25T09:25:33Z</time>
      </trkpt>
      <trkpt lat="12.937760995700955" lon="101.013338975608349">
        <ele>162.599999999999994</ele>
        <time>2013-05-25T09:25:59Z</time>
      </trkpt>
      <trkpt lat="12.937401998788118" lon="101.013038987293839">
        <ele>162.599999999999994</ele>
        <time>2013-05-25T09:26:10Z</time>
      </trkpt>
      <trkpt lat="12.937123971059918" lon="101.012607989832759">
        <ele>162.120000000000005</ele>
        <time>2013-05-25T09:26:22Z</time>
      </trkpt>
      <trkpt lat="12.937022969126701" lon="101.011741971597075">
        <ele>163.560000000000002</ele>
        <time>2013-05-25T09:26:48Z</time>
      </trkpt>
      <trkpt lat="12.936881985515356" lon="101.011699978262186">
        <ele>163.560000000000002</ele>
        <time>2013-05-25T09:26:52Z</time>
      </trkpt>
      <trkpt lat="12.936235992237926" lon="101.011704001575708">
        <ele>161.639999999999986</ele>
        <time>2013-05-25T09:27:06Z</time>
      </trkpt>
      <trkpt lat="12.935842964798212" lon="101.011435026302934">
        <ele>160.680000000000007</ele>
        <time>2013-05-25T09:27:20Z</time>
      </trkpt>
      <trkpt lat="12.935482040047646" lon="101.011414993554354">
        <ele>159.719999999999999</ele>
        <time>2013-05-25T09:27:32Z</time>
      </trkpt>
      <trkpt lat="12.935138968750834" lon="101.011121962219477">
        <ele>161.159999999999997</ele>
        <time>2013-05-25T09:27:44Z</time>
      </trkpt>
      <trkpt lat="12.935094963759184" lon="101.010963963344693">
        <ele>161.159999999999997</ele>
        <time>2013-05-25T09:27:48Z</time>
      </trkpt>
      <trkpt lat="12.934781983494759" lon="101.010602032765746">
        <ele>158.27000000000001</ele>
        <time>2013-05-25T09:28:00Z</time>
      </trkpt>
      <trkpt lat="12.933406010270119" lon="101.010830020532012">
        <ele>147.699999999999989</ele>
        <time>2013-05-25T09:28:21Z</time>
      </trkpt>
      <trkpt lat="12.93270000256598" lon="101.010433975607157">
        <ele>146.740000000000009</ele>
        <time>2013-05-25T09:28:42Z</time>
      </trkpt>
      <trkpt lat="12.932222988456488" lon="101.01059096865356">
        <ele>144.340000000000003</ele>
        <time>2013-05-25T09:28:52Z</time>
      </trkpt>
      <trkpt lat="12.931887963786721" lon="101.010632961988449">
        <ele>142.409999999999997</ele>
        <time>2013-05-25T09:28:57Z</time>
      </trkpt>
      <trkpt lat="12.931221015751362" lon="101.010256027802825">
        <ele>141.449999999999989</ele>
        <time>2013-05-25T09:29:11Z</time>
      </trkpt>
      <trkpt lat="12.931072991341352" lon="101.009979005903006">
        <ele>140.490000000000009</ele>
        <time>2013-05-25T09:29:17Z</time>
      </trkpt>
      <trkpt lat="12.930619027465582" lon="101.010034997016191">
        <ele>142.889999999999986</ele>
        <time>2013-05-25T09:29:27Z</time>
      </trkpt>
      <trkpt lat="12.930584996938705" lon="101.010072967037559">
        <ele>142.889999999999986</ele>
        <time>2013-05-25T09:29:28Z</time>
      </trkpt>
      <trkpt lat="12.930101025849581" lon="101.010652994737029">
        <ele>139.050000000000011</ele>
        <time>2013-05-25T09:29:40Z</time>
      </trkpt>
      <trkpt lat="12.929718978703022" lon="101.010732958093286">
        <ele>135.199999999999989</ele>
        <time>2013-05-25T09:29:45Z</time>
      </trkpt>
      <trkpt lat="12.929244982078671" lon="101.010617036372423">
        <ele>133.759999999999991</ele>
        <time>2013-05-25T09:29:51Z</time>
      </trkpt>
      <trkpt lat="12.928128009662032" lon="101.009912034496665">
        <ele>127.989999999999995</ele>
        <time>2013-05-25T09:30:08Z</time>
      </trkpt>
      <trkpt lat="12.927690977230668" lon="101.008567996323109">
        <ele>126.069999999999993</ele>
        <time>2013-05-25T09:30:29Z</time>
      </trkpt>
      <trkpt lat="12.927597016096115" lon="101.008465988561511">
        <ele>125.590000000000003</ele>
        <time>2013-05-25T09:30:31Z</time>
      </trkpt>
      <trkpt lat="12.926826970651746" lon="101.007871963083744">
        <ele>117.900000000000006</ele>
        <time>2013-05-25T09:30:44Z</time>
      </trkpt>
      <trkpt lat="12.926013004034758" lon="101.006234977394342">
        <ele>114.049999999999997</ele>
        <time>2013-05-25T09:31:23Z</time>
      </trkpt>
      <trkpt lat="12.925963969901204" lon="101.006206981837749">
        <ele>112.129999999999995</ele>
        <time>2013-05-25T09:31:38Z</time>
      </trkpt>
      <trkpt lat="12.926065977662802" lon="101.006547035649419">
        <ele>113.569999999999993</ele>
        <time>2013-05-25T09:31:56Z</time>
      </trkpt>
      <trkpt lat="12.925964975729585" lon="101.007179031148553">
        <ele>111.650000000000006</ele>
        <time>2013-05-25T09:32:10Z</time>
      </trkpt>
      <trkpt lat="12.925179004669189" lon="101.007630983367562">
        <ele>109.25</ele>
        <time>2013-05-25T09:32:30Z</time>
      </trkpt>
      <trkpt lat="12.924026995897293" lon="101.009568041190505">
        <ele>121.739999999999995</ele>
        <time>2013-05-25T09:33:58Z</time>
      </trkpt>
      <trkpt lat="12.924763010814786" lon="101.010589962825179">
        <ele>120.780000000000001</ele>
        <time>2013-05-25T09:34:31Z</time>
      </trkpt>
      <trkpt lat="12.925577983260155" lon="101.012249998748302">
        <ele>126.069999999999993</ele>
        <time>2013-05-25T09:35:10Z</time>
      </trkpt>
      <trkpt lat="12.926128003746271" lon="101.013780031353235">
        <ele>129.430000000000007</ele>
        <time>2013-05-25T09:35:47Z</time>
      </trkpt>
      <trkpt lat="12.926747007295489" lon="101.016358975321054">
        <ele>140.490000000000009</ele>
        <time>2013-05-25T09:37:03Z</time>
      </trkpt>
      <trkpt lat="12.927017994225025" lon="101.016858033835888">
        <ele>141.930000000000007</ele>
        <time>2013-05-25T09:37:18Z</time>
      </trkpt>
      <trkpt lat="12.926772991195321" lon="101.01656299084425">
        <ele>141.449999999999989</ele>
        <time>2013-05-25T09:37:33Z</time>
      </trkpt>
      <trkpt lat="12.926721023395658" lon="101.016126964241266">
        <ele>140.490000000000009</ele>
        <time>2013-05-25T09:37:48Z</time>
      </trkpt>
      <trkpt lat="12.926344005391002" lon="101.016969010233879">
        <ele>140.490000000000009</ele>
        <time>2013-05-25T09:38:14Z</time>
      </trkpt>
      <trkpt lat="12.927295016124845" lon="101.018226966261864">
        <ele>144.819999999999993</ele>
        <time>2013-05-25T09:39:05Z</time>
      </trkpt>
      <trkpt lat="12.92788702994585" lon="101.018833983689547">
        <ele>144.819999999999993</ele>
        <time>2013-05-25T09:39:28Z</time>
      </trkpt>
      <trkpt lat="12.927581006661057" lon="101.019954979419708">
        <ele>145.300000000000011</ele>
        <time>2013-05-25T09:40:10Z</time>
      </trkpt>
      <trkpt lat="12.927039032801986" lon="101.019968977198005">
        <ele>145.300000000000011</ele>
        <time>2013-05-25T09:40:28Z</time>
      </trkpt>
      <trkpt lat="12.926844991743565" lon="101.020846981555223">
        <ele>147.219999999999999</ele>
        <time>2013-05-25T09:40:56Z</time>
      </trkpt>
      <trkpt lat="12.926644999533892" lon="101.022045006975532">
        <ele>148.180000000000007</ele>
        <time>2013-05-25T09:41:29Z</time>
      </trkpt>
      <trkpt lat="12.926565958186984" lon="101.022584969177842">
        <ele>147.699999999999989</ele>
        <time>2013-05-25T09:41:44Z</time>
      </trkpt>
      <trkpt lat="12.925676973536611" lon="101.022889986634254">
        <ele>148.180000000000007</ele>
        <time>2013-05-25T09:42:18Z</time>
      </trkpt>
      <trkpt lat="12.925532972440124" lon="101.022436022758484">
        <ele>150.099999999999994</ele>
        <time>2013-05-25T09:42:43Z</time>
      </trkpt>
      <trkpt lat="12.925635986030102" lon="101.022242987528443">
        <ele>148.180000000000007</ele>
        <time>2013-05-25T09:42:57Z</time>
      </trkpt>
      <trkpt lat="12.92528604157269" lon="101.02195599116385">
        <ele>146.740000000000009</ele>
        <time>2013-05-25T09:43:14Z</time>
      </trkpt>
      <trkpt lat="12.925355024635792" lon="101.02193696424365">
        <ele>148.659999999999997</ele>
        <time>2013-05-25T09:43:22Z</time>
      </trkpt>
      <trkpt lat="12.92591099627316" lon="101.022252039983869">
        <ele>150.099999999999994</ele>
        <time>2013-05-25T09:43:47Z</time>
      </trkpt>
      <trkpt lat="12.925693988800049" lon="101.022236030548811">
        <ele>150.099999999999994</ele>
        <time>2013-05-25T09:43:57Z</time>
      </trkpt>
      <trkpt lat="12.925471030175686" lon="101.022452032193542">
        <ele>150.099999999999994</ele>
        <time>2013-05-25T09:44:06Z</time>
      </trkpt>
      <trkpt lat="12.925156038254499" lon="101.022597039118409">
        <ele>149.620000000000005</ele>
        <time>2013-05-25T09:44:14Z</time>
      </trkpt>
      <trkpt lat="12.924207961186767" lon="101.022524032741785">
        <ele>143.849999999999994</ele>
        <time>2013-05-25T09:44:29Z</time>
      </trkpt>
      <trkpt lat="12.923011025413871" lon="101.019345028325915">
        <ele>130.400000000000006</ele>
        <time>2013-05-25T09:45:15Z</time>
      </trkpt>
      <trkpt lat="12.923459960147738" lon="101.018979996442795">
        <ele>128.469999999999999</ele>
        <time>2013-05-25T09:45:54Z</time>
      </trkpt>
    </trkseg>
  </trk>

</gpx>
